Time;durP1;ratioP1;P1;durP2;ratioP2;P2;SDS_P1;SDS_P2;PMS_P1;PMS_P2;Temp;Humidity;BMP_temperature;BMP_pressure;BME280_temperature;BME280_humidity;BME280_pressure;Samples;Min_cycle;Max_cycle;Signal;HPM_P1;HPM_P2
2022/06/15 00:03:25;;;;;;;9.55;3.72;;;;;;;23.21;82.05;100670.09;4692282;26;20041;-80
2022/06/15 00:05:51;;;;;;;8.93;3.80;;;;;;;23.21;81.89;100674.69;5017928;28;20053;-82
2022/06/15 00:08:26;;;;;;;9.07;3.53;;;;;;;23.23;78.98;100661.75;5038313;28;20018;-83
2022/06/15 00:10:58;;;;;;;9.82;3.85;;;;;;;22.99;80.51;100667.25;5037539;28;20038;-83
2022/06/15 00:13:46;;;;;;;12.38;3.97;;;;;;;23.01;80.33;100667.81;5018459;28;20106;-81
2022/06/15 00:16:41;;;;;;;14.43;4.32;;;;;;;22.72;82.08;100660.72;5016154;28;20037;-85
2022/06/15 00:19:46;;;;;;;9.02;3.50;;;;;;;22.59;82.42;100660.97;5079003;23;20037;-82
2022/06/15 00:22:56;;;;;;;11.52;3.58;;;;;;;22.41;82.75;100661.91;4998593;28;20078;-83
2022/06/15 00:29:33;;;;;;;9.93;4.05;;;;;;;22.36;84.26;100655.59;5002453;28;20067;-84
2022/06/15 00:32:24;;;;;;;10.18;3.83;;;;;;;22.23;85.47;100658.53;5014416;28;20042;-84
2022/06/15 00:38:12;;;;;;;16.85;4.07;;;;;;;22.26;85.15;100647.25;5017778;28;20046;-82
2022/06/15 00:43:35;;;;;;;9.27;3.80;;;;;;;22.29;85.47;100647.59;5247557;23;20141;-86
2022/06/15 00:58:44;;;;;;;9.13;4.70;;;;;;;22.10;87.16;100659.56;5018871;28;20061;-80
2022/06/15 01:11:03;;;;;;;16.10;5.32;;;;;;;22.04;87.48;100665.91;5018255;28;20123;-80
2022/06/15 01:14:33;;;;;;;10.95;4.97;;;;;;;22.03;87.76;100670.50;5019682;28;20049;-83
2022/06/15 01:24:18;;;;;;;12.10;5.70;;;;;;;22.04;87.65;100674.81;5012916;28;20049;-81
2022/06/15 01:27:41;;;;;;;7.65;5.18;;;;;;;22.00;88.58;100662.03;5005385;28;20058;-81
2022/06/15 01:36:14;;;;;;;10.45;5.05;;;;;;;21.79;89.35;100673.34;1257619;26;20038;-81
2022/06/15 01:45:06;;;;;;;11.48;5.50;;;;;;;21.49;92.45;100667.97;5014540;28;20048;-82
2022/06/15 01:47:46;;;;;;;12.27;5.47;;;;;;;21.47;94.68;100664.72;5007462;28;20073;-82
2022/06/15 01:51:05;;;;;;;20.65;5.82;;;;;;;21.54;94.15;100662.75;5015922;28;20125;-80
2022/06/15 01:56:38;;;;;;;11.55;6.30;;;;;;;21.37;95.30;100669.81;4820350;26;20050;-82
2022/06/15 02:07:22;;;;;;;11.10;5.60;;;;;;;21.50;92.08;100683.94;2216479;26;20396;-81
2022/06/15 02:10:08;;;;;;;10.77;5.38;;;;;;;21.28;94.04;100692.78;4969360;28;20031;-81
2022/06/15 02:24:19;;;;;;;14.02;7.45;;;;;;;20.85;97.68;100676.66;5147263;23;20056;-83
2022/06/15 02:28:20;;;;;;;13.38;6.93;;;;;;;21.07;96.21;100680.56;4997236;28;20030;-81
2022/06/15 02:35:38;;;;;;;15.70;7.57;;;;;;;21.07;96.76;100684.09;4954618;29;20087;-81
2022/06/15 02:38:28;;;;;;;11.48;7.07;;;;;;;21.05;96.83;100686.16;4944257;29;20032;-81
2022/06/15 02:41:35;;;;;;;14.60;7.47;;;;;;;21.01;97.04;100692.25;4996553;28;20046;-81
2022/06/15 02:44:42;;;;;;;11.63;7.47;;;;;;;21.09;96.17;100683.84;5028115;28;20105;-80
2022/06/15 02:50:39;;;;;;;16.02;7.55;;;;;;;20.98;98.01;100681.94;3802212;26;20031;-81
2022/06/15 02:53:28;;;;;;;16.07;8.13;;;;;;;20.96;98.04;100684.84;4979315;28;20050;-80
2022/06/15 02:55:59;;;;;;;20.17;8.25;;;;;;;20.99;97.73;100684.38;4967591;28;20306;-80
2022/06/15 02:58:52;;;;;;;14.57;8.60;;;;;;;20.90;98.92;100680.34;4968433;28;20039;-80
2022/06/15 03:05:11;;;;;;;31.00;8.77;;;;;;;20.80;100.00;100679.22;3023452;26;20089;-81
2022/06/15 03:07:50;;;;;;;14.38;8.73;;;;;;;20.87;100.00;100688.06;4992520;28;20055;-81
2022/06/15 03:10:27;;;;;;;17.40;8.20;;;;;;;20.87;100.00;100690.75;4928705;28;20051;-81
2022/06/15 03:13:29;;;;;;;15.07;7.60;;;;;;;20.80;100.00;100690.00;4991058;28;20035;-83
2022/06/15 03:16:03;;;;;;;12.48;7.97;;;;;;;20.78;100.00;100692.91;4990118;28;20042;-80
2022/06/15 03:18:58;;;;;;;17.00;8.23;;;;;;;20.75;100.00;100687.97;5018721;28;20057;-79
2022/06/15 03:24:25;;;;;;;12.68;8.27;;;;;;;20.59;100.00;100699.34;5032675;23;20360;-81
2022/06/15 03:26:54;;;;;;;16.08;8.27;;;;;;;20.67;100.00;100703.63;5025099;28;20045;-79
2022/06/15 03:29:36;;;;;;;14.75;7.82;;;;;;;20.63;100.00;100704.06;5019559;28;20054;-80
2022/06/15 03:32:36;;;;;;;14.50;7.82;;;;;;;20.66;100.00;100712.75;5014835;28;20105;-81
2022/06/15 03:35:10;;;;;;;19.27;9.00;;;;;;;20.62;100.00;100710.50;4969616;28;20039;-81
2022/06/15 03:56:08;;;;;;;17.42;8.70;;;;;;;20.59;100.00;100716.31;5102465;23;20046;-87
2022/06/15 04:02:35;;;;;;;15.77;9.20;;;;;;;20.69;100.00;100725.75;5009270;28;20080;-79
2022/06/15 04:05:42;;;;;;;14.48;9.10;;;;;;;20.66;100.00;100727.03;5070337;23;20054;-90
2022/06/15 04:22:49;;;;;;;16.95;11.23;;;;;;;20.38;100.00;100724.81;5030314;23;20030;-83
2022/06/15 04:25:37;;;;;;;19.63;10.93;;;;;;;20.38;100.00;100722.13;5021303;28;20070;-83
2022/06/15 04:28:20;;;;;;;21.48;11.57;;;;;;;20.30;100.00;100721.59;5027343;28;20040;-81
2022/06/15 04:30:47;;;;;;;20.42;10.13;;;;;;;20.32;100.00;100719.47;4987945;28;20038;-83
2022/06/15 04:33:33;;;;;;;23.17;10.07;;;;;;;20.40;100.00;100721.91;5033712;28;20061;-86
2022/06/15 04:36:41;;;;;;;18.40;9.35;;;;;;;20.51;100.00;100730.09;4999972;28;20050;-85
2022/06/15 04:39:10;;;;;;;17.52;8.85;;;;;;;20.40;100.00;100716.53;5020222;28;20030;-85
2022/06/15 04:42:05;;;;;;;;;;;;;;;20.25;100.00;100710.63;5033519;28;20045;-86
2022/06/15 04:45:48;;;;;;;15.80;10.27;;;;;;;20.31;100.00;100720.56;4969306;23;19968;-82
2022/06/15 04:51:29;;;;;;;22.40;8.63;;;;;;;20.62;100.00;100720.44;5011610;23;20046;-83
2022/06/15 04:54:11;;;;;;;14.30;9.75;;;;;;;20.48;100.00;100713.56;5032311;28;20062;-84
2022/06/15 04:56:42;;;;;;;16.35;9.70;;;;;;;20.48;100.00;100722.44;5023979;23;20049;-84
2022/06/15 04:59:10;;;;;;;15.60;9.63;;;;;;;20.62;100.00;100726.66;5015636;28;20042;-85
2022/06/15 05:01:53;;;;;;;18.83;9.27;;;;;;;20.76;100.00;100726.50;5009060;28;20046;-86
2022/06/15 05:04:23;;;;;;;19.00;10.18;;;;;;;20.85;100.00;100731.38;5011152;28;20022;-84
2022/06/15 05:07:01;;;;;;;24.00;9.90;;;;;;;20.96;100.00;100724.44;5015399;28;20034;-83
2022/06/15 05:09:38;;;;;;;21.58;10.93;;;;;;;20.95;100.00;100723.59;4982431;28;20050;-85
2022/06/15 05:12:31;;;;;;;19.70;10.50;;;;;;;21.03;100.00;100739.47;5011675;23;20042;-83
2022/06/15 05:14:57;;;;;;;18.83;10.65;;;;;;;21.11;100.00;100739.19;4992958;28;20041;-85
2022/06/15 05:17:27;;;;;;;21.67;11.32;;;;;;;21.09;100.00;100741.31;5013274;28;20018;-82
2022/06/15 05:22:36;;;;;;;19.80;10.35;;;;;;;21.10;100.00;100740.25;5152574;22;20302;-82
2022/06/15 05:25:32;;;;;;;20.45;10.77;;;;;;;21.35;100.00;100750.09;5009738;28;20031;-83
2022/06/15 05:28:38;;;;;;;13.02;10.23;;;;;;;21.43;100.00;100755.19;5075798;22;20040;-83
2022/06/15 05:31:29;;;;;;;26.17;10.00;;;;;;;21.43;100.00;100755.19;5017112;28;20060;-84
2022/06/15 05:34:10;;;;;;;12.82;9.65;;;;;;;21.49;100.00;100754.28;5029664;28;20120;-84
2022/06/15 05:37:03;;;;;;;17.58;9.52;;;;;;;21.67;100.00;100756.97;5011730;28;20069;-83
2022/06/15 05:39:46;;;;;;;23.58;9.50;;;;;;;21.80;100.00;100755.94;5019305;28;20050;-83
2022/06/15 05:42:12;;;;;;;22.38;9.70;;;;;;;21.87;99.59;100757.50;5021959;28;20408;-84
2022/06/15 05:44:49;;;;;;;15.77;9.07;;;;;;;21.92;97.87;100749.56;5017945;28;20037;-85
2022/06/15 05:47:15;;;;;;;14.50;9.48;;;;;;;21.97;97.07;100760.50;5233380;23;20049;-84
2022/06/15 05:50:14;;;;;;;18.23;10.35;;;;;;;22.06;97.44;100752.88;5003887;23;20034;-85
2022/06/15 05:53:18;;;;;;;18.10;9.85;;;;;;;22.27;95.10;100751.50;5012110;28;20116;-86
2022/06/15 05:56:12;;;;;;;19.23;9.13;;;;;;;22.34;96.57;100746.81;5017811;28;20058;-82
2022/06/15 05:58:38;;;;;;;14.40;9.38;;;;;;;22.41;95.06;100750.22;5009157;28;20062;-85
2022/06/15 06:01:37;;;;;;;17.48;9.82;;;;;;;22.37;95.42;100757.16;5073344;23;21192;-85
2022/06/15 06:04:18;;;;;;;23.55;9.68;;;;;;;22.57;93.97;100757.66;4993413;28;20039;-86
2022/06/15 06:07:09;;;;;;;21.55;8.82;;;;;;;22.76;92.72;100770.00;4977334;28;20034;-83
2022/06/15 06:09:52;;;;;;;20.75;8.63;;;;;;;23.05;90.62;100760.91;4981920;28;20073;-84
2022/06/15 06:12:25;;;;;;;13.57;8.52;;;;;;;23.38;89.28;100756.72;5028476;23;20042;-85
2022/06/15 06:14:53;;;;;;;13.63;9.25;;;;;;;23.48;87.16;100765.88;5013323;28;20391;-88
2022/06/15 06:20:23;;;;;;;13.43;7.53;;;;;;;23.80;85.70;100762.72;1862870;23;20042;-86
2022/06/15 06:23:29;;;;;;;16.52;8.02;;;;;;;24.04;83.48;100764.19;5034078;28;20042;-87
2022/06/15 06:26:31;;;;;;;22.38;7.45;;;;;;;24.19;83.06;100768.00;5030740;28;20053;-85
2022/06/15 06:29:42;;;;;;;13.90;6.73;;;;;;;24.42;81.87;100777.06;5019635;28;20373;-87
2022/06/15 06:32:56;;;;;;;18.88;8.32;;;;;;;24.46;80.89;100778.22;5037113;28;20403;-87
2022/06/15 06:35:55;;;;;;;15.90;9.05;;;;;;;24.90;78.97;100766.44;5157751;23;20050;-85
2022/06/15 06:55:50;;;;;;;17.23;9.07;;;;;;;25.75;73.69;100779.47;3790224;23;20507;-87
2022/06/15 06:58:34;;;;;;;19.95;8.73;;;;;;;26.26;70.38;100777.22;4977966;28;20103;-85
2022/06/15 07:03:59;;;;;;;16.98;8.73;;;;;;;25.95;73.04;100782.34;4998251;28;20049;-86
2022/06/15 07:18:51;;;;;;;18.73;8.95;;;;;;;25.29;79.63;100782.69;4995806;28;20031;-82
2022/06/15 07:21:30;;;;;;;21.85;8.52;;;;;;;25.88;75.90;100787.19;5005502;28;20039;-85
2022/06/15 07:29:39;;;;;;;11.82;7.22;;;;;;;26.89;69.62;100782.63;4125123;23;20088;-84
2022/06/15 07:32:20;;;;;;;12.88;6.75;;;;;;;26.57;72.29;100779.13;5024178;28;20058;-87
2022/06/15 07:34:52;;;;;;;19.75;7.13;;;;;;;27.03;70.09;100772.09;5033502;28;20049;-88
2022/06/15 07:37:40;;;;;;;20.70;8.23;;;;;;;26.93;70.05;100770.13;5008880;28;20077;-87
2022/06/15 07:40:31;;;;;;;15.52;7.80;;;;;;;26.57;71.92;100768.25;5007359;28;20046;-87
2022/06/15 07:43:04;;;;;;;13.82;7.82;;;;;;;27.27;69.14;100767.03;4988521;28;20042;-87
2022/06/15 07:45:52;;;;;;;13.02;5.57;;;;;;;27.56;70.08;100781.88;4997554;28;20077;-88
2022/06/15 07:51:56;;;;;;;17.33;6.15;;;;;;;28.30;65.83;100778.75;5110780;23;20058;-88
2022/06/15 07:54:38;;;;;;;16.35;5.72;;;;;;;27.61;67.88;100781.88;4958936;28;20035;-86
2022/06/15 07:57:24;;;;;;;14.45;5.93;;;;;;;27.49;68.23;100784.00;4969470;28;20034;-85
2022/06/15 08:00:12;;;;;;;10.73;4.80;;;;;;;27.60;69.44;100774.81;4993031;28;20031;-86
2022/06/15 08:03:13;;;;;;;16.38;5.18;;;;;;;28.36;64.88;100769.47;4977048;28;20030;-85
2022/06/15 08:05:58;;;;;;;12.27;6.25;;;;;;;27.96;67.77;100773.78;4980962;28;20053;-86
2022/06/15 08:08:45;;;;;;;15.82;4.72;;;;;;;28.26;67.08;100769.47;4983867;28;20029;-84
2022/06/15 08:15:10;;;;;;;8.48;4.07;;;;;;;28.71;64.66;100772.19;5188160;23;20058;-87
2022/06/15 08:18:09;;;;;;;11.68;3.80;;;;;;;29.04;62.50;100771.53;4975112;28;20128;-88
2022/06/15 08:21:47;;;;;;;12.15;4.72;;;;;;;28.45;65.41;100770.53;4945500;28;20067;-84
2022/06/15 08:24:49;;;;;;;16.55;4.93;;;;;;;28.92;62.63;100776.50;4953798;28;20075;-85
2022/06/15 08:27:46;;;;;;;14.20;4.30;;;;;;;29.00;61.40;100778.66;4976380;28;20060;-87
2022/06/15 08:31:03;;;;;;;8.50;4.82;;;;;;;28.93;62.23;100769.97;5008981;28;20065;-85
2022/06/15 08:34:55;;;;;;;12.65;5.20;;;;;;;29.31;60.64;100776.66;4999352;28;20054;-86
2022/06/15 08:40:56;;;;;;;9.15;4.03;;;;;;;29.97;58.14;100788.06;5001124;23;20065;-85
2022/06/15 08:43:52;;;;;;;12.02;4.03;;;;;;;30.54;55.62;100783.81;5040306;23;20056;-86
2022/06/15 08:47:28;;;;;;;9.25;3.75;;;;;;;31.06;53.79;100785.75;5033493;28;20030;-86
2022/06/15 08:50:43;;;;;;;10.30;5.10;;;;;;;29.92;57.75;100799.06;4996852;28;20061;-84
2022/06/15 08:53:39;;;;;;;5.60;3.50;;;;;;;30.20;57.32;100790.09;5006386;28;20058;-89
2022/06/15 08:56:08;;;;;;;13.77;4.97;;;;;;;30.17;57.20;100779.72;4989366;28;20113;-87
2022/06/15 08:58:50;;;;;;;10.02;3.45;;;;;;;30.33;57.92;100777.66;4999923;28;20081;-88
2022/06/15 09:01:28;;;;;;;15.02;4.40;;;;;;;31.04;53.54;100783.31;5008422;28;20037;-87
2022/06/15 09:04:28;;;;;;;11.25;3.85;;;;;;;31.03;53.68;100781.69;5015410;28;20038;-89
2022/06/15 09:07:16;;;;;;;10.75;3.83;;;;;;;30.67;55.44;100783.94;5012441;28;20058;-86
2022/06/15 09:09:54;;;;;;;7.18;3.25;;;;;;;30.36;56.74;100787.25;5008232;28;20061;-88
2022/06/15 09:12:58;;;;;;;8.10;4.28;;;;;;;30.33;55.84;100787.81;5008547;28;20093;-84
2022/06/15 09:15:27;;;;;;;10.30;3.25;;;;;;;30.49;56.03;100781.94;5011157;28;20081;-88
2022/06/15 09:17:55;;;;;;;13.48;4.40;;;;;;;30.88;54.52;100779.09;5012819;28;20113;-85
2022/06/15 09:20:28;;;;;;;11.88;3.60;;;;;;;30.73;54.75;100771.84;5012444;28;20045;-88
2022/06/15 09:23:02;;;;;;;9.77;4.32;;;;;;;30.74;55.94;100768.00;4995052;28;20160;-89
2022/06/15 09:25:41;;;;;;;7.85;3.60;;;;;;;30.74;54.64;100765.28;5010414;28;20053;-88
2022/06/15 09:28:33;;;;;;;9.40;3.63;;;;;;;30.75;54.80;100768.84;5008055;28;20037;-88
2022/06/15 09:31:05;;;;;;;11.10;3.97;;;;;;;30.26;56.29;100764.31;5001620;28;20060;-88
2022/06/15 09:33:38;;;;;;;12.68;3.53;;;;;;;30.34;55.85;100753.88;5004249;28;20132;-87
2022/06/15 09:36:12;;;;;;;9.40;3.13;;;;;;;30.10;57.11;100751.06;5009752;28;20505;-87
2022/06/15 09:38:38;;;;;;;10.00;3.60;;;;;;;29.99;56.51;100761.28;5011192;28;20041;-90
2022/06/15 09:41:36;;;;;;;10.93;3.47;;;;;;;30.24;56.96;100750.13;5003195;28;20054;-85
2022/06/15 09:44:35;;;;;;;13.63;4.50;;;;;;;30.73;55.24;100749.13;5001925;28;20503;-87
2022/06/15 09:47:11;;;;;;;6.85;2.95;;;;;;;30.99;54.32;100746.97;4935643;28;20084;-85
2022/06/15 09:50:04;;;;;;;10.93;3.17;;;;;;;31.12;53.36;100749.00;5012662;28;20038;-88
2022/06/15 09:52:32;;;;;;;6.75;3.40;;;;;;;30.90;53.15;100738.53;5005624;28;20109;-89
2022/06/15 09:55:06;;;;;;;6.10;3.75;;;;;;;30.68;53.56;100743.72;4990470;28;20034;-93
2022/06/15 09:57:32;;;;;;;10.13;3.40;;;;;;;30.76;53.77;100735.69;5010567;28;20034;-87
2022/06/15 10:00:02;;;;;;;7.07;2.63;;;;;;;30.90;54.05;100735.81;5006852;28;20443;-90
2022/06/15 10:02:35;;;;;;;11.73;4.22;;;;;;;30.52;54.04;100736.78;5002685;28;20041;-93
2022/06/15 10:05:04;;;;;;;14.55;5.40;;;;;;;30.45;53.88;100733.56;5006078;28;20038;-88
2022/06/15 10:07:41;;;;;;;13.80;4.72;;;;;;;31.05;53.02;100726.63;5004217;28;20082;-92
2022/06/15 10:10:21;;;;;;;11.93;3.67;;;;;;;30.88;52.96;100718.88;5003535;28;20034;-94
2022/06/15 10:12:56;;;;;;;12.60;3.88;;;;;;;30.99;52.69;100725.88;5003611;28;20073;-89
2022/06/15 10:15:33;;;;;;;10.57;3.35;;;;;;;31.00;52.43;100716.56;4996436;28;20486;-86
2022/06/15 10:18:19;;;;;;;6.63;3.30;;;;;;;30.93;52.76;100718.78;5018387;28;20045;-91
2022/06/15 10:21:04;;;;;;;9.02;2.67;;;;;;;31.47;52.43;100723.88;5014951;28;20052;-90
2022/06/15 10:23:40;;;;;;;17.95;4.82;;;;;;;31.23;52.75;100726.66;5012981;28;20564;-90
2022/06/15 10:26:10;;;;;;;8.10;4.22;;;;;;;31.40;52.29;100719.88;5012925;28;20705;-92
2022/06/15 10:28:40;;;;;;;7.88;3.88;;;;;;;31.70;51.16;100719.47;5015216;28;20038;-91
2022/06/15 10:31:15;;;;;;;10.30;3.78;;;;;;;31.41;51.10;100713.28;5012225;28;20390;-90
2022/06/15 10:33:46;;;;;;;9.48;3.72;;;;;;;31.08;51.11;100707.69;5013908;28;20097;-89
2022/06/15 10:36:26;;;;;;;10.40;2.90;;;;;;;31.50;49.85;100725.19;4995763;28;20121;-92
2022/06/15 10:38:58;;;;;;;8.10;2.97;;;;;;;32.06;48.42;100722.47;4994071;28;20031;-91
2022/06/15 10:41:48;;;;;;;10.50;3.22;;;;;;;31.86;49.51;100725.50;5025689;28;20023;-88
2022/06/15 10:44:38;;;;;;;11.52;3.70;;;;;;;31.68;49.39;100728.00;5032246;28;20029;-89
2022/06/15 10:47:19;;;;;;;8.98;3.85;;;;;;;31.41;49.76;100726.97;5029002;28;20038;-91
2022/06/15 10:49:59;;;;;;;10.57;2.83;;;;;;;31.75;49.14;100728.41;5005760;28;20068;-89
2022/06/15 10:52:36;;;;;;;9.90;3.25;;;;;;;32.09;48.10;100722.69;5006759;28;20045;-90
2022/06/15 11:04:27;;;;;;;9.13;3.80;;;;;;;31.80;50.14;100697.38;5004465;28;20042;-88
2022/06/15 11:07:10;;;;;;;6.55;3.13;;;;;;;31.87;50.08;100703.28;5009556;28;20109;-91
2022/06/15 11:09:56;;;;;;;7.50;3.25;;;;;;;32.08;49.51;100688.16;5004665;28;20481;-89
2022/06/15 11:12:26;;;;;;;8.95;3.25;;;;;;;32.05;48.92;100688.75;5016832;28;20566;-86
2022/06/15 11:14:57;;;;;;;13.43;3.47;;;;;;;32.54;47.47;100690.06;5001088;28;20484;-86
2022/06/15 11:20:42;;;;;;;8.25;3.35;;;;;;;32.68;47.33;100682.69;5015060;28;20057;-84
2022/06/15 11:23:18;;;;;;;15.65;3.35;;;;;;;32.26;47.24;100681.78;5009372;28;20034;-86
2022/06/15 11:25:54;;;;;;;9.00;3.17;;;;;;;31.89;48.75;100683.78;5014265;28;20033;-88
2022/06/15 11:28:25;;;;;;;8.57;3.60;;;;;;;31.65;49.10;100678.44;5010565;28;20033;-88
2022/06/15 11:31:03;;;;;;;11.75;3.00;;;;;;;31.06;50.67;100666.09;5010674;28;20096;-89
2022/06/15 11:33:43;;;;;;;10.48;3.25;;;;;;;31.14;50.83;100662.72;5012858;28;20041;-85
2022/06/15 11:36:38;;;;;;;8.85;2.85;;;;;;;31.30;49.67;100665.22;5006761;28;20117;-85
2022/06/15 11:39:12;;;;;;;12.68;3.10;;;;;;;31.32;50.37;100671.25;5014388;28;20544;-84
2022/06/15 11:41:58;;;;;;;7.55;2.60;;;;;;;31.45;49.60;100667.75;5006327;28;20030;-87
2022/06/15 11:44:27;;;;;;;9.20;3.10;;;;;;;30.99;50.78;100671.09;5003962;28;20049;-83
2022/06/15 11:47:12;;;;;;;11.00;3.47;;;;;;;31.00;50.95;100667.28;5011524;28;20034;-86
2022/06/15 11:50:05;;;;;;;9.30;2.88;;;;;;;31.25;50.71;100669.66;5014275;28;20029;-85
2022/06/15 11:52:48;;;;;;;7.38;2.88;;;;;;;31.06;50.44;100665.28;5012604;28;20034;-88
2022/06/15 11:55:30;;;;;;;11.60;3.53;;;;;;;31.00;50.87;100661.81;5007232;28;20152;-86
2022/06/15 11:57:56;;;;;;;9.32;3.13;;;;;;;31.05;51.10;100663.66;5012530;28;20041;-89
2022/06/15 12:00:31;;;;;;;8.43;2.90;;;;;;;31.16;50.52;100668.69;5014860;28;20399;-89
2022/06/15 12:02:57;;;;;;;7.70;3.58;;;;;;;31.05;51.30;100669.97;5002011;28;20068;-86
2022/06/15 12:05:28;;;;;;;8.10;3.15;;;;;;;31.29;51.98;100667.13;5013345;28;20049;-87
2022/06/15 12:08:14;;;;;;;10.00;3.28;;;;;;;31.33;50.74;100675.59;5013765;28;20498;-87
2022/06/15 12:10:58;;;;;;;11.27;3.22;;;;;;;31.36;51.54;100669.50;5010963;28;20038;-84
2022/06/15 12:13:49;;;;;;;11.02;3.13;;;;;;;31.24;51.88;100673.53;5006812;28;20029;-84
2022/06/15 12:16:36;;;;;;;7.10;3.00;;;;;;;31.31;51.26;100672.34;5011187;28;20478;-87
2022/06/15 12:19:25;;;;;;;9.20;2.92;;;;;;;31.25;51.51;100669.66;5012277;28;20780;-85
2022/06/15 12:22:09;;;;;;;6.00;3.10;;;;;;;31.56;51.33;100658.28;5004243;28;20490;-87
2022/06/15 12:24:46;;;;;;;11.90;3.28;;;;;;;31.34;50.48;100649.84;5013879;28;20030;-86
2022/06/15 12:27:23;;;;;;;9.57;3.20;;;;;;;31.47;50.39;100660.03;5011063;28;20034;-86
2022/06/15 12:30:06;;;;;;;9.35;3.25;;;;;;;31.32;51.07;100660.28;5028483;28;20084;-89
2022/06/15 12:32:41;;;;;;;9.20;3.50;;;;;;;31.27;49.48;100655.69;5012841;28;20030;-87
2022/06/15 12:35:37;;;;;;;10.88;3.25;;;;;;;31.23;50.01;100649.16;5007611;28;20555;-85
2022/06/15 12:38:25;;;;;;;10.50;3.00;;;;;;;31.26;50.13;100643.91;5011624;28;20042;-87
2022/06/15 12:44:19;;;;;;;13.05;3.65;;;;;;;31.35;49.62;100648.72;5013243;28;20042;-84
2022/06/15 12:46:48;;;;;;;11.13;3.25;;;;;;;31.47;49.74;100649.09;5005503;28;20031;-85
2022/06/15 12:49:19;;;;;;;10.57;2.83;;;;;;;31.38;50.17;100645.41;5005331;28;20026;-88
2022/06/15 12:52:10;;;;;;;12.05;2.75;;;;;;;31.41;49.11;100650.28;5014526;23;20038;-86
2022/06/15 12:54:51;;;;;;;12.20;3.20;;;;;;;30.88;49.49;100642.22;4987708;28;20041;-87
2022/06/15 12:57:38;;;;;;;11.40;3.13;;;;;;;31.01;49.58;100636.06;5003292;28;20039;-92
2022/06/15 13:00:11;;;;;;;7.65;2.90;;;;;;;31.19;48.98;100637.16;4998955;28;20396;-90
2022/06/15 13:03:26;;;;;;;9.40;3.58;;;;;;;31.27;48.92;100626.38;4989745;28;20495;-88
2022/06/15 13:06:19;;;;;;;10.70;3.20;;;;;;;31.35;48.45;100622.16;4983132;28;20050;-87
2022/06/15 13:09:18;;;;;;;11.10;2.83;;;;;;;31.33;47.76;100631.75;4999794;28;20080;-86
2022/06/15 13:12:09;;;;;;;7.72;2.75;;;;;;;31.35;47.92;100638.59;4992326;28;20098;-87
2022/06/15 13:14:44;;;;;;;9.55;3.25;;;;;;;31.42;47.01;100632.75;4998901;28;20515;-87
2022/06/15 13:18:11;;;;;;;15.23;3.00;;;;;;;31.35;47.67;100646.00;4993239;28;20125;-89
2022/06/15 13:21:04;;;;;;;9.43;3.15;;;;;;;31.27;49.07;100645.53;4935874;29;20074;-85
2022/06/15 13:23:41;;;;;;;15.10;3.20;;;;;;;30.93;49.72;100642.16;4982840;23;20044;-84
2022/06/15 13:26:22;;;;;;;6.50;3.15;;;;;;;30.74;50.34;100647.59;4995673;28;20118;-89
2022/06/15 13:29:01;;;;;;;6.78;3.42;;;;;;;30.64;50.52;100641.44;4997081;28;20108;-89
2022/06/15 13:32:06;;;;;;;12.05;3.35;;;;;;;30.80;51.19;100629.19;4997535;28;20040;-91
2022/06/15 13:34:56;;;;;;;10.90;3.78;;;;;;;30.87;51.13;100623.34;4992957;28;20037;-87
2022/06/15 13:37:36;;;;;;;8.13;3.45;;;;;;;31.01;51.39;100629.75;5004686;28;20034;-88
2022/06/15 13:40:09;;;;;;;9.82;3.42;;;;;;;31.19;51.05;100621.53;5004527;28;20028;-86
2022/06/15 13:42:40;;;;;;;7.22;3.35;;;;;;;31.38;49.39;100620.75;5011917;28;20042;-87
2022/06/15 13:45:28;;;;;;;8.18;3.25;;;;;;;31.43;48.01;100615.16;5010655;28;20026;-89
2022/06/15 13:47:58;;;;;;;12.83;3.00;;;;;;;31.37;47.07;100599.94;5006324;28;20041;-88
2022/06/15 13:50:34;;;;;;;4.45;2.97;;;;;;;31.43;46.78;100590.50;4978126;28;20034;-90
2022/06/15 13:53:04;;;;;;;9.02;3.00;;;;;;;31.27;47.38;100590.75;4988296;28;20033;-90
2022/06/15 13:55:49;;;;;;;13.18;3.15;;;;;;;31.39;47.13;100593.03;4989237;28;20106;-88
2022/06/15 13:58:34;;;;;;;9.35;3.55;;;;;;;31.31;47.74;100584.69;4990633;28;20096;-90
2022/06/15 14:01:27;;;;;;;6.10;3.60;;;;;;;31.42;47.79;100572.47;5006696;28;20049;-90
2022/06/15 14:04:40;;;;;;;7.28;3.20;;;;;;;31.40;48.07;100571.94;4993025;28;20047;-88
2022/06/15 14:07:41;;;;;;;7.78;3.55;;;;;;;31.24;47.99;100569.44;4995160;28;20066;-84
2022/06/15 14:10:32;;;;;;;9.50;3.55;;;;;;;31.34;48.29;100556.69;4958700;29;20047;-86
2022/06/15 14:13:26;;;;;;;9.07;3.38;;;;;;;31.44;48.26;100559.28;4954521;29;20055;-89
2022/06/15 14:15:57;;;;;;;7.40;3.45;;;;;;;31.45;48.15;100553.50;4955390;29;20043;-90
2022/06/15 14:18:38;;;;;;;10.30;3.90;;;;;;;31.55;47.83;100553.38;4941380;29;20047;-92
2022/06/15 14:21:28;;;;;;;8.60;3.37;;;;;;;31.52;48.48;100547.66;4957613;29;20066;-89
2022/06/15 14:23:54;;;;;;;18.75;11.30;;;;;;;31.51;47.82;100562.47;4981562;28;20043;-88
2022/06/15 14:26:23;;;;;;;6.85;3.58;;;;;;;31.57;48.05;100550.31;5003018;28;20125;-88
2022/06/15 14:28:58;;;;;;;7.68;3.53;;;;;;;31.66;47.38;100548.50;5003634;28;20133;-90
2022/06/15 14:31:27;;;;;;;15.70;3.85;;;;;;;31.72;47.90;100536.31;4996861;28;20038;-90
2022/06/15 14:33:59;;;;;;;7.90;3.30;;;;;;;31.82;47.75;100530.66;4999591;28;20093;-90
2022/06/15 14:36:26;;;;;;;8.43;3.63;;;;;;;31.68;47.46;100536.13;5043757;23;20065;-89
2022/06/15 14:39:15;;;;;;;11.00;3.47;;;;;;;31.71;47.33;100529.25;5024329;28;20057;-91
2022/06/15 14:42:01;;;;;;;8.25;3.83;;;;;;;31.56;47.20;100529.50;5024186;28;20034;-90
2022/06/15 14:44:33;;;;;;;11.27;3.58;;;;;;;31.61;47.28;100537.63;4996697;28;20037;-90
2022/06/15 14:47:03;;;;;;;5.90;3.25;;;;;;;31.62;47.67;100540.06;5001503;28;20030;-89
2022/06/15 14:49:35;;;;;;;7.10;3.08;;;;;;;31.60;48.00;100536.00;5008155;28;20045;-89
2022/06/15 14:52:09;;;;;;;6.75;3.20;;;;;;;31.64;48.65;100539.78;5024853;28;20136;-89
2022/06/15 14:54:41;;;;;;;4.70;3.25;;;;;;;31.77;48.22;100539.00;5005092;28;20068;-88
2022/06/15 14:57:07;;;;;;;7.15;3.55;;;;;;;31.73;48.01;100538.78;5019775;28;20036;-86
2022/06/15 14:59:52;;;;;;;9.00;3.25;;;;;;;31.86;47.57;100541.84;5019007;28;20072;-91
2022/06/15 15:02:19;;;;;;;11.68;3.85;;;;;;;31.63;47.19;100544.44;5028021;28;20034;-90
2022/06/15 15:04:52;;;;;;;7.35;3.70;;;;;;;31.59;47.87;100531.63;5026308;28;20106;-91
2022/06/15 15:10:23;;;;;;;19.63;3.15;;;;;;;31.73;47.45;100543.44;5027689;28;20105;-89
2022/06/15 15:13:13;;;;;;;5.00;3.47;;;;;;;31.61;47.49;100543.13;5027834;28;20041;-89
2022/06/15 15:15:58;;;;;;;9.73;3.90;;;;;;;31.40;47.09;100539.06;5010963;28;20046;-89
2022/06/15 15:18:42;;;;;;;6.55;3.17;;;;;;;31.46;47.64;100543.34;5001722;28;20096;-90
2022/06/15 15:21:32;;;;;;;8.05;3.40;;;;;;;31.47;47.01;100534.00;5015795;28;20056;-87
2022/06/15 15:24:17;;;;;;;14.02;3.83;;;;;;;31.18;47.88;100537.78;5001024;28;20039;-88
2022/06/15 15:26:57;;;;;;;14.13;3.88;;;;;;;31.34;47.29;100523.84;4984332;28;20423;-90
2022/06/15 15:35:32;;;;;;;9.35;3.90;;;;;;;31.25;48.11;100512.75;5012379;28;20139;-88
2022/06/15 15:38:18;;;;;;;9.32;3.40;;;;;;;31.33;48.14;100508.50;5014148;28;20476;-88
2022/06/15 15:40:51;;;;;;;12.48;4.35;;;;;;;31.35;48.43;100509.03;5030321;28;20120;-87
2022/06/15 15:43:17;;;;;;;10.45;4.03;;;;;;;31.24;48.39;100498.25;5025360;28;20050;-88
2022/06/15 15:45:44;;;;;;;11.02;3.80;;;;;;;31.21;48.66;100493.38;5020171;28;20038;-86
2022/06/15 15:48:16;;;;;;;10.77;4.22;;;;;;;31.27;48.92;100496.81;5022948;28;20090;-89
2022/06/15 15:50:42;;;;;;;8.20;3.78;;;;;;;31.21;49.23;100489.81;5026041;28;20045;-88
2022/06/15 15:53:09;;;;;;;6.47;3.60;;;;;;;31.11;50.06;100496.28;5020558;28;20030;-88
2022/06/15 15:55:44;;;;;;;6.55;3.90;;;;;;;31.22;48.50;100508.66;5011807;28;20030;-87
2022/06/15 15:58:12;;;;;;;8.32;3.58;;;;;;;31.39;48.06;100510.84;5026863;28;20038;-87
2022/06/15 16:00:39;;;;;;;13.15;3.80;;;;;;;31.25;48.08;100510.81;5019635;28;20037;-86
2022/06/15 16:03:07;;;;;;;9.48;3.80;;;;;;;31.18;48.33;100520.53;5019131;28;20120;-85